sensor_id;sensor_type;location;lat;lon;timestamp;pressure;altitude;pressure_sealevel;temperature;humidity
62712;BME280;48772;55.586;37.730;2022-10-16T00:01:34;100535.56;;;5.30;100.00
62712;BME280;48772;55.586;37.730;2022-10-16T00:04:01;100554.88;;;5.32;100.00
62712;BME280;48772;55.586;37.730;2022-10-16T00:06:30;100542.84;;;5.25;100.00
62712;BME280;48772;55.586;37.730;2022-10-16T00:08:56;100544.69;;;5.23;100.00
62712;BME280;48772;55.586;37.730;2022-10-16T00:11:29;100554.28;;;5.25;100.00
62712;BME280;48772;55.586;37.730;2022-10-16T00:13:58;100561.38;;;5.25;100.00
62712;BME280;48772;55.586;37.730;2022-10-16T00:16:24;100528.13;;;4.99;100.00
62712;BME280;48772;55.586;37.730;2022-10-16T00:18:50;100561.75;;;5.16;100.00
62712;BME280;48772;55.586;37.730;2022-10-16T00:21:19;100553.97;;;5.13;100.00
62712;BME280;48772;55.586;37.730;2022-10-16T00:24:06;100559.28;;;5.13;100.00
62712;BME280;48772;55.586;37.730;2022-10-16T00:26:34;100559.19;;;5.14;100.00
62712;BME280;48772;55.586;37.730;2022-10-16T00:29:02;100564.81;;;5.07;100.00
62712;BME280;48772;55.586;37.730;2022-10-16T00:31:28;100577.09;;;5.08;100.00
62712;BME280;48772;55.586;37.730;2022-10-16T00:33:55;100572.94;;;5.02;100.00
62712;BME280;48772;55.586;37.730;2022-10-16T00:36:22;100558.44;;;4.91;100.00
62712;BME280;48772;55.586;37.730;2022-10-16T00:38:53;100561.19;;;4.89;100.00
62712;BME280;48772;55.586;37.730;2022-10-16T00:41:21;100568.13;;;4.92;100.00
62712;BME280;48772;55.586;37.730;2022-10-16T00:43:49;100532.34;;;4.63;100.00
62712;BME280;48772;55.586;37.730;2022-10-16T00:46:20;100574.41;;;4.89;100.00
62712;BME280;48772;55.586;37.730;2022-10-16T00:49:17;100567.44;;;4.87;100.00
62712;BME280;48772;55.586;37.730;2022-10-16T00:51:48;100573.66;;;4.86;100.00
62712;BME280;48772;55.586;37.730;2022-10-16T00:54:22;100557.28;;;4.78;100.00
62712;BME280;48772;55.586;37.730;2022-10-16T00:56:48;100571.41;;;4.77;100.00
62712;BME280;48772;55.586;37.730;2022-10-16T00:59:22;100563.72;;;4.71;100.00
62712;BME280;48772;55.586;37.730;2022-10-16T01:01:50;100575.09;;;4.73;100.00
62712;BME280;48772;55.586;37.730;2022-10-16T01:04:17;100578.66;;;4.72;100.00
62712;BME280;48772;55.586;37.730;2022-10-16T01:06:49;100577.88;;;4.70;100.00
62712;BME280;48772;55.586;37.730;2022-10-16T01:15:00;100573.88;;;4.60;100.00
62712;BME280;48772;55.586;37.730;2022-10-16T01:20:37;100589.84;;;4.57;100.00
62712;BME280;48772;55.586;37.730;2022-10-16T01:28:53;100595.41;;;4.51;100.00
62712;BME280;48772;55.586;37.730;2022-10-16T01:31:24;100587.78;;;4.43;100.00
62712;BME280;48772;55.586;37.730;2022-10-16T01:34:02;100585.44;;;4.36;100.00
62712;BME280;48772;55.586;37.730;2022-10-16T01:36:36;100602.03;;;4.39;100.00
62712;BME280;48772;55.586;37.730;2022-10-16T01:39:04;100606.56;;;4.36;100.00
62712;BME280;48772;55.586;37.730;2022-10-16T01:41:39;100599.56;;;4.35;100.00
62712;BME280;48772;55.586;37.730;2022-10-16T01:46:34;100594.28;;;4.35;100.00
62712;BME280;48772;55.586;37.730;2022-10-16T01:49:03;100578.94;;;4.23;100.00
62712;BME280;48772;55.586;37.730;2022-10-16T01:51:30;100594.66;;;4.26;100.00
62712;BME280;48772;55.586;37.730;2022-10-16T01:54:00;100579.19;;;4.17;100.00
62712;BME280;48772;55.586;37.730;2022-10-16T01:56:28;100614.69;;;4.31;100.00
62712;BME280;48772;55.586;37.730;2022-10-16T01:59:14;100609.53;;;4.28;100.00
62712;BME280;48772;55.586;37.730;2022-10-16T02:01:43;100606.81;;;4.30;100.00
62712;BME280;48772;55.586;37.730;2022-10-16T02:04:32;100606.28;;;4.22;100.00
62712;BME280;48772;55.586;37.730;2022-10-16T02:06:58;100605.56;;;4.17;100.00
62712;BME280;48772;55.586;37.730;2022-10-16T02:09:25;100601.34;;;4.13;100.00
62712;BME280;48772;55.586;37.730;2022-10-16T02:11:54;100603.84;;;4.16;100.00
62712;BME280;48772;55.586;37.730;2022-10-16T02:14:21;100610.97;;;4.14;100.00
62712;BME280;48772;55.586;37.730;2022-10-16T02:16:50;100608.63;;;4.06;100.00
62712;BME280;48772;55.586;37.730;2022-10-16T02:19:17;100612.31;;;4.02;100.00
62712;BME280;48772;55.586;37.730;2022-10-16T02:27:19;100601.38;;;3.90;100.00
62712;BME280;48772;55.586;37.730;2022-10-16T02:29:53;100623.97;;;3.97;100.00
62712;BME280;48772;55.586;37.730;2022-10-16T02:32:28;100589.31;;;3.83;100.00
62712;BME280;48772;55.586;37.730;2022-10-16T02:34:56;100614.56;;;3.90;100.00
62712;BME280;48772;55.586;37.730;2022-10-16T02:37:24;100621.44;;;3.94;100.00
62712;BME280;48772;55.586;37.730;2022-10-16T02:39:50;100604.28;;;3.82;100.00
62712;BME280;48772;55.586;37.730;2022-10-16T02:42:18;100614.72;;;3.85;100.00
62712;BME280;48772;55.586;37.730;2022-10-16T02:44:44;100614.78;;;3.84;100.00
62712;BME280;48772;55.586;37.730;2022-10-16T02:47:10;100620.06;;;3.84;100.00
62712;BME280;48772;55.586;37.730;2022-10-16T02:49:35;100591.50;;;3.72;100.00
62712;BME280;48772;55.586;37.730;2022-10-16T02:52:01;100629.81;;;3.82;100.00
62712;BME280;48772;55.586;37.730;2022-10-16T02:54:27;100632.56;;;3.79;100.00
62712;BME280;48772;55.586;37.730;2022-10-16T02:56:53;100631.63;;;3.80;100.00
62712;BME280;48772;55.586;37.730;2022-10-16T02:59:19;100631.75;;;3.77;100.00
62712;BME280;48772;55.586;37.730;2022-10-16T03:01:45;100619.69;;;3.70;100.00
62712;BME280;48772;55.586;37.730;2022-10-16T03:04:10;100633.59;;;3.75;100.00
62712;BME280;48772;55.586;37.730;2022-10-16T03:06:36;100637.13;;;3.74;100.00
62712;BME280;48772;55.586;37.730;2022-10-16T03:09:02;100630.16;;;3.73;100.00
62712;BME280;48772;55.586;37.730;2022-10-16T03:11:28;100638.16;;;3.70;100.00
62712;BME280;48772;55.586;37.730;2022-10-16T03:13:54;100597.81;;;3.44;100.00
62712;BME280;48772;55.586;37.730;2022-10-16T03:16:20;100628.91;;;3.60;100.00
62712;BME280;48772;55.586;37.730;2022-10-16T03:18:49;100630.81;;;3.54;100.00
62712;BME280;48772;55.586;37.730;2022-10-16T03:21:16;100608.47;;;3.41;100.00
62712;BME280;48772;55.586;37.730;2022-10-16T03:23:42;100649.84;;;3.63;100.00
62712;BME280;48772;55.586;37.730;2022-10-16T03:26:08;100641.25;;;3.58;100.00
62712;BME280;48772;55.586;37.730;2022-10-16T03:28:34;100637.88;;;3.54;100.00
62712;BME280;48772;55.586;37.730;2022-10-16T03:30:59;100652.69;;;3.58;100.00
62712;BME280;48772;55.586;37.730;2022-10-16T03:33:26;100632.09;;;3.44;100.00
62712;BME280;48772;55.586;37.730;2022-10-16T03:35:53;100651.06;;;3.54;100.00
62712;BME280;48772;55.586;37.730;2022-10-16T03:38:20;100602.91;;;3.24;100.00
62712;BME280;48772;55.586;37.730;2022-10-16T03:40:46;100649.31;;;3.53;100.00
62712;BME280;48772;55.586;37.730;2022-10-16T03:43:12;100640.88;;;3.43;100.00
62712;BME280;48772;55.586;37.730;2022-10-16T03:45:38;100649.47;;;3.50;100.00
62712;BME280;48772;55.586;37.730;2022-10-16T03:48:04;100628.00;;;3.36;100.00
62712;BME280;48772;55.586;37.730;2022-10-16T03:50:30;100632.28;;;3.38;100.00
62712;BME280;48772;55.586;37.730;2022-10-16T03:52:55;100624.59;;;3.32;100.00
62712;BME280;48772;55.586;37.730;2022-10-16T03:55:21;100654.06;;;3.43;100.00
62712;BME280;48772;55.586;37.730;2022-10-16T03:57:47;100607.59;;;3.16;100.00
62712;BME280;48772;55.586;37.730;2022-10-16T04:00:13;100647.41;;;3.33;100.00
62712;BME280;48772;55.586;37.730;2022-10-16T04:02:39;100624.81;;;3.26;100.00
62712;BME280;48772;55.586;37.730;2022-10-16T04:05:06;100656.06;;;3.37;100.00
62712;BME280;48772;55.586;37.730;2022-10-16T04:07:32;100662.16;;;3.39;100.00
62712;BME280;48772;55.586;37.730;2022-10-16T04:09:58;100654.16;;;3.40;100.00
62712;BME280;48772;55.586;37.730;2022-10-16T04:12:25;100659.56;;;3.37;100.00
62712;BME280;48772;55.586;37.730;2022-10-16T04:14:51;100653.97;;;3.46;100.00
62712;BME280;48772;55.586;37.730;2022-10-16T04:17:17;100649.00;;;3.62;100.00
62712;BME280;48772;55.586;37.730;2022-10-16T04:19:43;100651.38;;;3.93;100.00
62712;BME280;48772;55.586;37.730;2022-10-16T04:22:09;100649.88;;;4.09;100.00
62712;BME280;48772;55.586;37.730;2022-10-16T04:24:34;100651.88;;;4.47;100.00
62712;BME280;48772;55.586;37.730;2022-10-16T04:27:00;100596.94;;;4.35;100.00
62712;BME280;48772;55.586;37.730;2022-10-16T04:29:26;100658.34;;;4.83;100.00
62712;BME280;48772;55.586;37.730;2022-10-16T04:31:52;100644.41;;;4.79;100.00
62712;BME280;48772;55.586;37.730;2022-10-16T04:34:18;100654.47;;;4.70;100.00
62712;BME280;48772;55.586;37.730;2022-10-16T04:36:44;100662.72;;;4.41;100.00
62712;BME280;48772;55.586;37.730;2022-10-16T04:39:12;100654.13;;;4.13;100.00
62712;BME280;48772;55.586;37.730;2022-10-16T04:41:38;100636.81;;;3.83;100.00
62712;BME280;48772;55.586;37.730;2022-10-16T04:44:04;100642.41;;;3.74;100.00
62712;BME280;48772;55.586;37.730;2022-10-16T04:46:29;100653.03;;;3.95;100.00
62712;BME280;48772;55.586;37.730;2022-10-16T04:48:55;100655.38;;;4.03;100.00
62712;BME280;48772;55.586;37.730;2022-10-16T04:51:21;100633.59;;;3.75;100.00
62712;BME280;48772;55.586;37.730;2022-10-16T04:53:47;100662.53;;;4.22;100.00
62712;BME280;48772;55.586;37.730;2022-10-16T04:56:13;100660.50;;;4.95;100.00
62712;BME280;48772;55.586;37.730;2022-10-16T04:58:40;100648.91;;;5.39;100.00
62712;BME280;48772;55.586;37.730;2022-10-16T05:01:06;100658.78;;;5.94;100.00
62712;BME280;48772;55.586;37.730;2022-10-16T05:03:32;100638.19;;;6.00;100.00
62712;BME280;48772;55.586;37.730;2022-10-16T05:05:58;100653.41;;;6.51;100.00
62712;BME280;48772;55.586;37.730;2022-10-16T05:08:23;100657.00;;;6.50;100.00
62712;BME280;48772;55.586;37.730;2022-10-16T05:10:49;100657.88;;;6.86;100.00
62712;BME280;48772;55.586;37.730;2022-10-16T05:13:15;100616.31;;;7.04;100.00
62712;BME280;48772;55.586;37.730;2022-10-16T05:15:41;100657.19;;;7.68;100.00
62712;BME280;48772;55.586;37.730;2022-10-16T05:18:08;100654.25;;;7.89;100.00
62712;BME280;48772;55.586;37.730;2022-10-16T05:20:34;100630.13;;;8.09;100.00
62712;BME280;48772;55.586;37.730;2022-10-16T05:23:00;100654.50;;;8.17;100.00
62712;BME280;48772;55.586;37.730;2022-10-16T05:25:26;100655.28;;;8.66;100.00
62712;BME280;48772;55.586;37.730;2022-10-16T05:27:51;100645.53;;;8.66;100.00
62712;BME280;48772;55.586;37.730;2022-10-16T05:30:18;100662.19;;;8.54;100.00
62712;BME280;48772;55.586;37.730;2022-10-16T05:32:50;100664.97;;;8.82;100.00
62712;BME280;48772;55.586;37.730;2022-10-16T05:35:17;100659.91;;;8.93;100.00
62712;BME280;48772;55.586;37.730;2022-10-16T05:37:44;100638.50;;;9.40;100.00
62712;BME280;48772;55.586;37.730;2022-10-16T05:40:10;100639.53;;;9.37;100.00
62712;BME280;48772;55.586;37.730;2022-10-16T05:42:37;100673.47;;;9.34;100.00
62712;BME280;48772;55.586;37.730;2022-10-16T05:45:05;100645.91;;;9.78;100.00
62712;BME280;48772;55.586;37.730;2022-10-16T05:47:32;100664.75;;;10.46;100.00
62712;BME280;48772;55.586;37.730;2022-10-16T05:49:57;100653.13;;;10.47;100.00
62712;BME280;48772;55.586;37.730;2022-10-16T05:52:23;100649.72;;;10.31;100.00
62712;BME280;48772;55.586;37.730;2022-10-16T05:54:49;100669.16;;;10.73;100.00
62712;BME280;48772;55.586;37.730;2022-10-16T05:57:16;100649.88;;;10.82;100.00
62712;BME280;48772;55.586;37.730;2022-10-16T05:59:42;100656.53;;;10.63;100.00
62712;BME280;48772;55.586;37.730;2022-10-16T06:02:12;100671.34;;;11.07;100.00
62712;BME280;48772;55.586;37.730;2022-10-16T06:04:38;100673.59;;;11.40;100.00
62712;BME280;48772;55.586;37.730;2022-10-16T06:07:04;100674.81;;;11.22;100.00
62712;BME280;48772;55.586;37.730;2022-10-16T06:09:30;100670.56;;;11.32;100.00
62712;BME280;48772;55.586;37.730;2022-10-16T06:11:55;100687.06;;;11.12;100.00
62712;BME280;48772;55.586;37.730;2022-10-16T06:14:21;100687.69;;;11.15;100.00
62712;BME280;48772;55.586;37.730;2022-10-16T06:16:47;100683.22;;;11.55;100.00
62712;BME280;48772;55.586;37.730;2022-10-16T06:19:13;100663.91;;;11.64;100.00
62712;BME280;48772;55.586;37.730;2022-10-16T06:21:39;100687.25;;;11.62;100.00
62712;BME280;48772;55.586;37.730;2022-10-16T06:24:05;100680.41;;;11.83;97.42
62712;BME280;48772;55.586;37.730;2022-10-16T06:26:31;100685.03;;;11.54;98.22
62712;BME280;48772;55.586;37.730;2022-10-16T06:28:58;100666.81;;;11.73;97.65
62712;BME280;48772;55.586;37.730;2022-10-16T06:31:25;100672.25;;;11.72;100.00
62712;BME280;48772;55.586;37.730;2022-10-16T06:33:57;100666.22;;;12.07;93.43
62712;BME280;48772;55.586;37.730;2022-10-16T06:36:24;100670.16;;;11.77;94.62
62712;BME280;48772;55.586;37.730;2022-10-16T06:38:50;100691.31;;;12.05;94.11
62712;BME280;48772;55.586;37.730;2022-10-16T06:41:18;100671.75;;;12.29;92.22
62712;BME280;48772;55.586;37.730;2022-10-16T06:43:46;100680.06;;;12.86;87.25
62712;BME280;48772;55.586;37.730;2022-10-16T06:46:15;100681.94;;;13.09;87.11
62712;BME280;48772;55.586;37.730;2022-10-16T06:48:44;100677.88;;;13.03;81.33
62712;BME280;48772;55.586;37.730;2022-10-16T06:51:18;100680.47;;;13.05;83.16
62712;BME280;48772;55.586;37.730;2022-10-16T06:53:49;100656.94;;;13.32;77.16
62712;BME280;48772;55.586;37.730;2022-10-16T06:56:21;100682.84;;;13.55;73.36
62712;BME280;48772;55.586;37.730;2022-10-16T06:58:49;100681.34;;;13.40;75.23
62712;BME280;48772;55.586;37.730;2022-10-16T07:01:16;100686.88;;;14.06;74.63
62712;BME280;48772;55.586;37.730;2022-10-16T07:03:44;100696.44;;;13.65;74.00
62712;BME280;48772;55.586;37.730;2022-10-16T07:06:13;100687.09;;;13.81;71.64
62712;BME280;48772;55.586;37.730;2022-10-16T07:08:41;100669.50;;;14.34;67.88
62712;BME280;48772;55.586;37.730;2022-10-16T07:11:12;100693.63;;;14.78;65.12
62712;BME280;48772;55.586;37.730;2022-10-16T07:13:41;100686.22;;;14.59;66.58
62712;BME280;48772;55.586;37.730;2022-10-16T07:16:15;100693.91;;;14.64;65.01
62712;BME280;48772;55.586;37.730;2022-10-16T07:18:42;100685.41;;;14.90;62.88
62712;BME280;48772;55.586;37.730;2022-10-16T07:21:11;100671.28;;;14.11;65.13
62712;BME280;48772;55.586;37.730;2022-10-16T07:23:38;100706.00;;;14.47;66.27
62712;BME280;48772;55.586;37.730;2022-10-16T07:26:05;100696.94;;;14.81;65.43
62712;BME280;48772;55.586;37.730;2022-10-16T07:28:31;100679.91;;;15.45;61.63
62712;BME280;48772;55.586;37.730;2022-10-16T07:31:09;100685.53;;;15.53;58.74
62712;BME280;48772;55.586;37.730;2022-10-16T07:33:38;100674.06;;;15.40;57.60
62712;BME280;48772;55.586;37.730;2022-10-16T07:36:06;100688.84;;;15.66;58.47
62712;BME280;48772;55.586;37.730;2022-10-16T07:38:32;100670.94;;;15.35;56.22
62712;BME280;48772;55.586;37.730;2022-10-16T07:41:07;100664.13;;;16.13;53.65
62712;BME280;48772;55.586;37.730;2022-10-16T07:43:33;100681.03;;;16.46;52.17
62712;BME280;48772;55.586;37.730;2022-10-16T07:46:00;100686.16;;;16.49;51.95
62712;BME280;48772;55.586;37.730;2022-10-16T07:48:31;100678.66;;;16.31;50.99
62712;BME280;48772;55.586;37.730;2022-10-16T07:50:58;100688.25;;;16.85;48.96
62712;BME280;48772;55.586;37.730;2022-10-16T07:53:25;100670.09;;;16.87;48.30
62712;BME280;48772;55.586;37.730;2022-10-16T07:55:51;100683.38;;;16.69;49.07
62712;BME280;48772;55.586;37.730;2022-10-16T07:58:16;100660.19;;;16.78;48.04
62712;BME280;48772;55.586;37.730;2022-10-16T08:00:42;100674.91;;;17.61;47.10
62712;BME280;48772;55.586;37.730;2022-10-16T08:03:08;100679.59;;;17.59;45.81
62712;BME280;48772;55.586;37.730;2022-10-16T08:05:34;100686.31;;;18.10;44.90
62712;BME280;48772;55.586;37.730;2022-10-16T08:08:02;100696.47;;;17.70;45.18
62712;BME280;48772;55.586;37.730;2022-10-16T08:10:29;100661.75;;;18.13;43.90
62712;BME280;48772;55.586;37.730;2022-10-16T08:12:55;100682.50;;;18.59;42.92
62712;BME280;48772;55.586;37.730;2022-10-16T08:15:31;100679.13;;;18.47;42.03
62712;BME280;48772;55.586;37.730;2022-10-16T08:18:08;100643.03;;;18.48;41.67
62712;BME280;48772;55.586;37.730;2022-10-16T08:20:43;100671.31;;;18.81;41.30
62712;BME280;48772;55.586;37.730;2022-10-16T08:23:12;100659.06;;;19.04;40.62
62712;BME280;48772;55.586;37.730;2022-10-16T08:25:40;100684.44;;;19.20;40.35
62712;BME280;48772;55.586;37.730;2022-10-16T08:28:08;100670.28;;;19.09;40.17
62712;BME280;48772;55.586;37.730;2022-10-16T08:30:35;100656.84;;;19.17;39.74
62712;BME280;48772;55.586;37.730;2022-10-16T08:33:01;100666.88;;;19.07;39.55
62712;BME280;48772;55.586;37.730;2022-10-16T08:35:27;100674.59;;;19.29;39.20
62712;BME280;48772;55.586;37.730;2022-10-16T08:37:53;100658.44;;;19.37;38.99
62712;BME280;48772;55.586;37.730;2022-10-16T08:40:22;100659.38;;;19.28;38.97
62712;BME280;48772;55.586;37.730;2022-10-16T08:50:52;100662.84;;;19.56;37.88
62712;BME280;48772;55.586;37.730;2022-10-16T08:53:43;100656.34;;;19.48;37.12
62712;BME280;48772;55.586;37.730;2022-10-16T08:56:11;100650.00;;;20.01;36.69
62712;BME280;48772;55.586;37.730;2022-10-16T08:58:37;100657.50;;;19.64;37.55
62712;BME280;48772;55.586;37.730;2022-10-16T09:01:04;100642.66;;;20.11;36.34
62712;BME280;48772;55.586;37.730;2022-10-16T09:09:36;100671.72;;;20.26;34.97
62712;BME280;48772;55.586;37.730;2022-10-16T09:12:13;100674.59;;;19.46;35.98
62712;BME280;48772;55.586;37.730;2022-10-16T09:14:46;100677.25;;;18.84;36.14
62712;BME280;48772;55.586;37.730;2022-10-16T09:17:52;100686.66;;;18.80;35.82
62712;BME280;48772;55.586;37.730;2022-10-16T09:20:32;100678.34;;;18.64;36.64
62712;BME280;48772;55.586;37.730;2022-10-16T09:25:47;100654.44;;;18.69;35.95
62712;BME280;48772;55.586;37.730;2022-10-16T09:28:18;100652.34;;;19.35;35.94
62712;BME280;48772;55.586;37.730;2022-10-16T09:30:44;100633.28;;;19.09;35.65
62712;BME280;48772;55.586;37.730;2022-10-16T09:33:12;100640.88;;;19.41;35.23
62712;BME280;48772;55.586;37.730;2022-10-16T09:35:47;100621.50;;;19.01;35.16
62712;BME280;48772;55.586;37.730;2022-10-16T09:38:34;100687.28;;;19.19;35.79
62712;BME280;48772;55.586;37.730;2022-10-16T09:41:03;100669.28;;;19.10;35.42
62712;BME280;48772;55.586;37.730;2022-10-16T09:43:42;100658.38;;;18.75;35.80
62712;BME280;48772;55.586;37.730;2022-10-16T09:48:49;100668.06;;;18.41;36.00
62712;BME280;48772;55.586;37.730;2022-10-16T09:51:36;100662.91;;;18.84;35.57
62712;BME280;48772;55.586;37.730;2022-10-16T09:54:20;100645.38;;;19.50;34.60
62712;BME280;48772;55.586;37.730;2022-10-16T09:56:47;100639.63;;;19.18;34.71
62712;BME280;48772;55.586;37.730;2022-10-16T09:59:19;100645.13;;;19.26;35.77
62712;BME280;48772;55.586;37.730;2022-10-16T10:01:54;100651.41;;;19.26;35.32
62712;BME280;48772;55.586;37.730;2022-10-16T10:04:23;100634.47;;;19.42;34.45
62712;BME280;48772;55.586;37.730;2022-10-16T10:06:54;100633.69;;;19.67;34.63
62712;BME280;48772;55.586;37.730;2022-10-16T10:11:58;100654.81;;;19.28;34.34
62712;BME280;48772;55.586;37.730;2022-10-16T10:22:27;100657.44;;;19.11;34.51
62712;BME280;48772;55.586;37.730;2022-10-16T10:35:54;100649.47;;;18.92;35.12
62712;BME280;48772;55.586;37.730;2022-10-16T10:46:57;100628.09;;;20.12;34.18
62712;BME280;48772;55.586;37.730;2022-10-16T10:49:44;100622.38;;;20.48;33.66
62712;BME280;48772;55.586;37.730;2022-10-16T10:54:57;100629.81;;;19.70;34.69
62712;BME280;48772;55.586;37.730;2022-10-16T11:00:13;100604.81;;;19.32;34.88
62712;BME280;48772;55.586;37.730;2022-10-16T11:02:54;100635.16;;;18.82;34.60
62712;BME280;48772;55.586;37.730;2022-10-16T11:05:36;100619.88;;;18.73;35.29
62712;BME280;48772;55.586;37.730;2022-10-16T11:11:10;100618.63;;;19.47;34.60
62712;BME280;48772;55.586;37.730;2022-10-16T11:13:39;100616.38;;;19.86;34.13
62712;BME280;48772;55.586;37.730;2022-10-16T11:16:29;100600.59;;;20.24;34.36
62712;BME280;48772;55.586;37.730;2022-10-16T11:22:38;100605.31;;;19.71;34.64
62712;BME280;48772;55.586;37.730;2022-10-16T11:25:14;100610.13;;;19.85;34.41
62712;BME280;48772;55.586;37.730;2022-10-16T11:27:47;100600.22;;;20.19;34.31
62712;BME280;48772;55.586;37.730;2022-10-16T11:30:22;100599.50;;;19.66;34.42
62712;BME280;48772;55.586;37.730;2022-10-16T11:35:47;100604.69;;;19.60;33.72
62712;BME280;48772;55.586;37.730;2022-10-16T11:44:31;100605.59;;;20.11;33.74
62712;BME280;48772;55.586;37.730;2022-10-16T11:53:50;100580.69;;;19.82;34.27
62712;BME280;48772;55.586;37.730;2022-10-16T11:56:19;100599.22;;;19.95;34.02
62712;BME280;48772;55.586;37.730;2022-10-16T12:01:26;100595.66;;;19.51;34.10
62712;BME280;48772;55.586;37.730;2022-10-16T12:04:16;100604.22;;;19.11;34.95
62712;BME280;48772;55.586;37.730;2022-10-16T12:06:59;100596.59;;;19.42;34.42
62712;BME280;48772;55.586;37.730;2022-10-16T12:09:33;100588.09;;;19.37;34.83
62712;BME280;48772;55.586;37.730;2022-10-16T12:12:00;100590.88;;;19.10;35.14
62712;BME280;48772;55.586;37.730;2022-10-16T12:19:29;100586.34;;;19.28;35.56
62712;BME280;48772;55.586;37.730;2022-10-16T12:21:58;100594.41;;;18.93;35.38
62712;BME280;48772;55.586;37.730;2022-10-16T12:26:56;100595.78;;;18.97;35.33
62712;BME280;48772;55.586;37.730;2022-10-16T12:29:38;100604.22;;;18.49;35.92
62712;BME280;48772;55.586;37.730;2022-10-16T12:32:39;100569.63;;;18.53;35.78
62712;BME280;48772;55.586;37.730;2022-10-16T12:35:19;100567.09;;;19.31;35.24
62712;BME280;48772;55.586;37.730;2022-10-16T12:37:46;100574.84;;;19.16;35.35
62712;BME280;48772;55.586;37.730;2022-10-16T12:40:22;100586.78;;;19.06;35.53
62712;BME280;48772;55.586;37.730;2022-10-16T12:42:49;100554.63;;;18.85;35.72
62712;BME280;48772;55.586;37.730;2022-10-16T12:45:32;100598.38;;;18.54;35.87
62712;BME280;48772;55.586;37.730;2022-10-16T12:48:01;100572.84;;;18.29;36.65
62712;BME280;48772;55.586;37.730;2022-10-16T12:50:31;100561.81;;;18.77;36.70
62712;BME280;48772;55.586;37.730;2022-10-16T12:53:00;100564.13;;;19.07;35.82
62712;BME280;48772;55.586;37.730;2022-10-16T12:55:26;100564.16;;;18.62;36.49
62712;BME280;48772;55.586;37.730;2022-10-16T13:01:27;100576.81;;;18.35;37.08
62712;BME280;48772;55.586;37.730;2022-10-16T13:07:15;100573.56;;;18.04;38.18
62712;BME280;48772;55.586;37.730;2022-10-16T13:12:50;100567.16;;;17.50;38.07
62712;BME280;48772;55.586;37.730;2022-10-16T13:24:26;100571.41;;;17.43;39.21
62712;BME280;48772;55.586;37.730;2022-10-16T13:29:53;100574.25;;;17.41;39.74
62712;BME280;48772;55.586;37.730;2022-10-16T13:32:21;100557.78;;;17.35;40.03
62712;BME280;48772;55.586;37.730;2022-10-16T13:34:48;100581.59;;;16.92;40.31
62712;BME280;48772;55.586;37.730;2022-10-16T13:37:20;100560.91;;;17.02;40.10
62712;BME280;48772;55.586;37.730;2022-10-16T13:39:47;100569.72;;;17.04;40.70
62712;BME280;48772;55.586;37.730;2022-10-16T13:42:24;100571.16;;;17.08;40.59
62712;BME280;48772;55.586;37.730;2022-10-16T13:44:53;100572.50;;;16.64;40.83
62712;BME280;48772;55.586;37.730;2022-10-16T13:47:27;100565.53;;;16.12;41.93
62712;BME280;48772;55.586;37.730;2022-10-16T13:50:12;100564.97;;;16.18;43.01
62712;BME280;48772;55.586;37.730;2022-10-16T13:52:42;100557.03;;;16.17;42.84
62712;BME280;48772;55.586;37.730;2022-10-16T13:55:14;100587.94;;;16.22;43.37
62712;BME280;48772;55.586;37.730;2022-10-16T13:57:42;100574.44;;;15.83;43.93
62712;BME280;48772;55.586;37.730;2022-10-16T14:00:19;100582.16;;;15.46;45.19
62712;BME280;48772;55.586;37.730;2022-10-16T14:03:00;100576.41;;;15.19;46.33
62712;BME280;48772;55.586;37.730;2022-10-16T14:05:28;100545.13;;;14.66;48.01
62712;BME280;48772;55.586;37.730;2022-10-16T14:07:55;100559.78;;;14.62;49.30
62712;BME280;48772;55.586;37.730;2022-10-16T14:10:28;100566.88;;;14.52;50.17
62712;BME280;48772;55.586;37.730;2022-10-16T14:13:01;100577.19;;;14.25;52.30
62712;BME280;48772;55.586;37.730;2022-10-16T14:15:30;100566.94;;;14.30;53.75
62712;BME280;48772;55.586;37.730;2022-10-16T14:17:57;100543.53;;;14.10;55.39
62712;BME280;48772;55.586;37.730;2022-10-16T14:20:33;100564.72;;;13.91;56.47
62712;BME280;48772;55.586;37.730;2022-10-16T14:23:16;100547.91;;;13.56;58.73
62712;BME280;48772;55.586;37.730;2022-10-16T14:25:44;100564.69;;;13.58;60.76
62712;BME280;48772;55.586;37.730;2022-10-16T14:28:20;100581.28;;;13.52;64.46
62712;BME280;48772;55.586;37.730;2022-10-16T14:30:52;100567.34;;;13.36;66.28
62712;BME280;48772;55.586;37.730;2022-10-16T14:33:22;100569.72;;;13.17;68.47
62712;BME280;48772;55.586;37.730;2022-10-16T14:36:01;100566.78;;;13.09;72.26
62712;BME280;48772;55.586;37.730;2022-10-16T14:38:28;100553.06;;;12.90;73.16
62712;BME280;48772;55.586;37.730;2022-10-16T14:40:57;100556.34;;;12.70;75.58
62712;BME280;48772;55.586;37.730;2022-10-16T14:45:56;100587.78;;;12.79;79.56
62712;BME280;48772;55.586;37.730;2022-10-16T14:48:23;100587.25;;;12.74;80.91
62712;BME280;48772;55.586;37.730;2022-10-16T14:50:49;100577.97;;;12.67;81.45
62712;BME280;48772;55.586;37.730;2022-10-16T14:53:16;100589.56;;;12.67;83.01
62712;BME280;48772;55.586;37.730;2022-10-16T14:55:42;100583.63;;;12.51;83.81
62712;BME280;48772;55.586;37.730;2022-10-16T14:58:21;100580.53;;;12.45;86.46
62712;BME280;48772;55.586;37.730;2022-10-16T15:00:48;100584.97;;;12.33;86.24
62712;BME280;48772;55.586;37.730;2022-10-16T15:03:15;100594.38;;;12.39;88.73
62712;BME280;48772;55.586;37.730;2022-10-16T15:05:43;100590.53;;;12.30;89.08
62712;BME280;48772;55.586;37.730;2022-10-16T15:08:09;100597.81;;;12.28;88.29